In Rescue
 
Open Full Screen Window  High Contrast Mode
Wind Gusting 00 knots
08
November 14, 2019 12:56 PM CST
Weather Information
Wind Direction
  200 °
Wind Speed
  08 kt (9 mph)
Wind Gust
  00 kt (0 mph)
Altimeter
30.18 in
Visibility
10 SM
Temperature
-02° C
28° F
Dewpoint
-09° C
16° F
Humidity
59%
1hr Rain Fall
00.00 in.
24hr Rain Fall
00.00 in.
Sky Condition
Overcast @ 5,500 ft
VFR

METAR KPNM 141856Z AUTO 20008KT 10SM OVC055 M02/M09 A3018 RMK AO2

FAA Disclaimer: The data displayed is for advisory purposes only and is not to be used for flight planning or operations.